sensor_id;sensor_type;location;lat;lon;timestamp;P1;durP1;ratioP1;P2;durP2;ratioP2
6979;SDS011;3530;52.832;10.680;2023-08-12T00:00:45;3.78;;;3.58;;
6979;SDS011;3530;52.832;10.680;2023-08-12T00:03:32;4.78;;;4.28;;
6979;SDS011;3530;52.832;10.680;2023-08-12T00:06:17;6.82;;;4.13;;
6979;SDS011;3530;52.832;10.680;2023-08-12T00:09:03;4.88;;;3.92;;
6979;SDS011;3530;52.832;10.680;2023-08-12T00:11:49;5.35;;;4.07;;
6979;SDS011;3530;52.832;10.680;2023-08-12T00:14:34;4.93;;;4.30;;
6979;SDS011;3530;52.832;10.680;2023-08-12T00:17:20;6.05;;;4.13;;
6979;SDS011;3530;52.832;10.680;2023-08-12T00:20:06;3.97;;;3.75;;
6979;SDS011;3530;52.832;10.680;2023-08-12T00:22:54;5.28;;;4.88;;
6979;SDS011;3530;52.832;10.680;2023-08-12T00:25:39;5.13;;;4.63;;
6979;SDS011;3530;52.832;10.680;2023-08-12T00:28:25;4.75;;;4.40;;
6979;SDS011;3530;52.832;10.680;2023-08-12T00:31:10;4.68;;;4.28;;
6979;SDS011;3530;52.832;10.680;2023-08-12T00:33:56;3.83;;;3.22;;
6979;SDS011;3530;52.832;10.680;2023-08-12T00:36:42;3.10;;;2.90;;
6979;SDS011;3530;52.832;10.680;2023-08-12T00:39:27;3.53;;;3.08;;
6979;SDS011;3530;52.832;10.680;2023-08-12T00:42:13;2.92;;;2.72;;
6979;SDS011;3530;52.832;10.680;2023-08-12T00:44:59;3.88;;;3.05;;
6979;SDS011;3530;52.832;10.680;2023-08-12T00:47:44;2.97;;;2.78;;
6979;SDS011;3530;52.832;10.680;2023-08-12T00:50:30;2.97;;;2.78;;
6979;SDS011;3530;52.832;10.680;2023-08-12T00:53:16;3.20;;;2.42;;
6979;SDS011;3530;52.832;10.680;2023-08-12T00:56:02;3.88;;;3.05;;
6979;SDS011;3530;52.832;10.680;2023-08-12T00:58:48;4.18;;;3.72;;
6979;SDS011;3530;52.832;10.680;2023-08-12T01:01:34;5.38;;;3.30;;
6979;SDS011;3530;52.832;10.680;2023-08-12T01:04:20;3.70;;;3.40;;
6979;SDS011;3530;52.832;10.680;2023-08-12T01:07:05;4.40;;;3.38;;
6979;SDS011;3530;52.832;10.680;2023-08-12T01:09:52;3.63;;;3.33;;
6979;SDS011;3530;52.832;10.680;2023-08-12T01:12:40;4.45;;;3.17;;
6979;SDS011;3530;52.832;10.680;2023-08-12T01:15:39;4.78;;;3.80;;
6979;SDS011;3530;52.832;10.680;2023-08-12T01:18:25;5.28;;;3.90;;
6979;SDS011;3530;52.832;10.680;2023-08-12T01:21:12;6.15;;;3.70;;
6979;SDS011;3530;52.832;10.680;2023-08-12T01:24:01;6.53;;;3.38;;
6979;SDS011;3530;52.832;10.680;2023-08-12T01:26:47;4.13;;;3.17;;
6979;SDS011;3530;52.832;10.680;2023-08-12T01:29:33;3.42;;;3.22;;
6979;SDS011;3530;52.832;10.680;2023-08-12T01:32:34;3.40;;;3.20;;
6979;SDS011;3530;52.832;10.680;2023-08-12T01:35:30;5.15;;;3.13;;
6979;SDS011;3530;52.832;10.680;2023-08-12T01:38:27;3.72;;;3.42;;
6979;SDS011;3530;52.832;10.680;2023-08-12T01:41:13;3.60;;;3.00;;
6979;SDS011;3530;52.832;10.680;2023-08-12T01:44:01;3.65;;;3.28;;
6979;SDS011;3530;52.832;10.680;2023-08-12T01:46:48;3.70;;;3.35;;
6979;SDS011;3530;52.832;10.680;2023-08-12T01:49:34;5.28;;;3.42;;
6979;SDS011;3530;52.832;10.680;2023-08-12T01:52:20;3.60;;;3.30;;
6979;SDS011;3530;52.832;10.680;2023-08-12T01:55:05;3.38;;;2.90;;
6979;SDS011;3530;52.832;10.680;2023-08-12T01:57:51;4.22;;;3.45;;
6979;SDS011;3530;52.832;10.680;2023-08-12T02:00:37;3.63;;;3.17;;
6979;SDS011;3530;52.832;10.680;2023-08-12T02:03:22;5.57;;;3.03;;
6979;SDS011;3530;52.832;10.680;2023-08-12T02:06:08;3.83;;;2.97;;
6979;SDS011;3530;52.832;10.680;2023-08-12T02:08:54;6.15;;;3.17;;
6979;SDS011;3530;52.832;10.680;2023-08-12T02:11:39;4.80;;;2.90;;
6979;SDS011;3530;52.832;10.680;2023-08-12T02:14:25;4.32;;;3.85;;
6979;SDS011;3530;52.832;10.680;2023-08-12T02:17:11;3.67;;;3.35;;
6979;SDS011;3530;52.832;10.680;2023-08-12T02:19:56;4.30;;;4.00;;
6979;SDS011;3530;52.832;10.680;2023-08-12T02:22:42;3.75;;;3.25;;
6979;SDS011;3530;52.832;10.680;2023-08-12T02:25:28;3.30;;;3.00;;
6979;SDS011;3530;52.832;10.680;2023-08-12T02:28:13;3.67;;;2.72;;
6979;SDS011;3530;52.832;10.680;2023-08-12T02:30:59;3.05;;;2.85;;
6979;SDS011;3530;52.832;10.680;2023-08-12T02:33:45;6.35;;;4.07;;
6979;SDS011;3530;52.832;10.680;2023-08-12T02:36:30;4.43;;;3.17;;
6979;SDS011;3530;52.832;10.680;2023-08-12T02:39:16;3.00;;;2.78;;
6979;SDS011;3530;52.832;10.680;2023-08-12T02:42:02;6.38;;;2.78;;
6979;SDS011;3530;52.832;10.680;2023-08-12T02:44:47;3.00;;;2.75;;
6979;SDS011;3530;52.832;10.680;2023-08-12T02:47:33;5.82;;;2.88;;
6979;SDS011;3530;52.832;10.680;2023-08-12T02:50:19;4.60;;;2.63;;
6979;SDS011;3530;52.832;10.680;2023-08-12T02:53:05;2.90;;;2.72;;
6979;SDS011;3530;52.832;10.680;2023-08-12T02:55:51;3.72;;;2.53;;
6979;SDS011;3530;52.832;10.680;2023-08-12T02:58:36;3.60;;;3.08;;
6979;SDS011;3530;52.832;10.680;2023-08-12T03:01:23;2.65;;;2.45;;
6979;SDS011;3530;52.832;10.680;2023-08-12T03:04:10;3.38;;;2.78;;
6979;SDS011;3530;52.832;10.680;2023-08-12T03:06:56;2.85;;;2.65;;
6979;SDS011;3530;52.832;10.680;2023-08-12T03:09:42;3.38;;;3.17;;
6979;SDS011;3530;52.832;10.680;2023-08-12T03:12:27;2.80;;;2.63;;
6979;SDS011;3530;52.832;10.680;2023-08-12T03:15:13;2.78;;;2.55;;
6979;SDS011;3530;52.832;10.680;2023-08-12T03:17:59;2.85;;;2.65;;
6979;SDS011;3530;52.832;10.680;2023-08-12T03:20:44;2.95;;;2.75;;
6979;SDS011;3530;52.832;10.680;2023-08-12T03:23:30;3.70;;;3.40;;
6979;SDS011;3530;52.832;10.680;2023-08-12T03:26:15;2.92;;;2.65;;
6979;SDS011;3530;52.832;10.680;2023-08-12T03:29:01;4.00;;;3.17;;
6979;SDS011;3530;52.832;10.680;2023-08-12T03:31:47;3.88;;;2.53;;
6979;SDS011;3530;52.832;10.680;2023-08-12T03:34:33;2.60;;;2.40;;
6979;SDS011;3530;52.832;10.680;2023-08-12T03:37:18;3.42;;;2.60;;
6979;SDS011;3530;52.832;10.680;2023-08-12T03:40:04;2.92;;;2.72;;
6979;SDS011;3530;52.832;10.680;2023-08-12T03:42:50;6.13;;;3.13;;
6979;SDS011;3530;52.832;10.680;2023-08-12T03:45:39;4.07;;;3.15;;
6979;SDS011;3530;52.832;10.680;2023-08-12T03:48:26;2.80;;;2.60;;
6979;SDS011;3530;52.832;10.680;2023-08-12T03:51:12;2.67;;;2.53;;
6979;SDS011;3530;52.832;10.680;2023-08-12T03:53:58;3.10;;;2.80;;
6979;SDS011;3530;52.832;10.680;2023-08-12T03:56:43;2.83;;;2.63;;
6979;SDS011;3530;52.832;10.680;2023-08-12T03:59:29;3.63;;;2.67;;
6979;SDS011;3530;52.832;10.680;2023-08-12T04:02:16;2.97;;;2.72;;
6979;SDS011;3530;52.832;10.680;2023-08-12T04:05:01;3.97;;;2.55;;
6979;SDS011;3530;52.832;10.680;2023-08-12T04:07:47;4.03;;;2.95;;
6979;SDS011;3530;52.832;10.680;2023-08-12T04:10:33;3.85;;;2.60;;
6979;SDS011;3530;52.832;10.680;2023-08-12T04:13:18;5.15;;;3.13;;
6979;SDS011;3530;52.832;10.680;2023-08-12T04:16:04;3.30;;;2.47;;
6979;SDS011;3530;52.832;10.680;2023-08-12T04:18:50;3.67;;;3.15;;
6979;SDS011;3530;52.832;10.680;2023-08-12T04:21:35;2.72;;;2.53;;
6979;SDS011;3530;52.832;10.680;2023-08-12T04:24:21;4.93;;;2.70;;
6979;SDS011;3530;52.832;10.680;2023-08-12T04:27:07;4.22;;;2.63;;
6979;SDS011;3530;52.832;10.680;2023-08-12T04:29:52;3.20;;;2.97;;
6979;SDS011;3530;52.832;10.680;2023-08-12T04:32:38;2.55;;;2.45;;
6979;SDS011;3530;52.832;10.680;2023-08-12T04:35:24;2.88;;;2.67;;
6979;SDS011;3530;52.832;10.680;2023-08-12T04:38:09;3.42;;;2.60;;
6979;SDS011;3530;52.832;10.680;2023-08-12T04:40:55;3.28;;;2.97;;
6979;SDS011;3530;52.832;10.680;2023-08-12T04:43:41;2.60;;;2.47;;
6979;SDS011;3530;52.832;10.680;2023-08-12T04:46:26;3.95;;;2.55;;
6979;SDS011;3530;52.832;10.680;2023-08-12T04:49:12;3.33;;;3.13;;
6979;SDS011;3530;52.832;10.680;2023-08-12T04:51:58;2.63;;;2.47;;
6979;SDS011;3530;52.832;10.680;2023-08-12T04:54:44;6.80;;;2.97;;
6979;SDS011;3530;52.832;10.680;2023-08-12T04:57:29;3.00;;;2.80;;
6979;SDS011;3530;52.832;10.680;2023-08-12T05:00:15;3.17;;;2.80;;
6979;SDS011;3530;52.832;10.680;2023-08-12T05:03:01;4.93;;;3.65;;
6979;SDS011;3530;52.832;10.680;2023-08-12T05:05:50;3.33;;;3.00;;
6979;SDS011;3530;52.832;10.680;2023-08-12T05:08:36;4.45;;;3.08;;
6979;SDS011;3530;52.832;10.680;2023-08-12T05:11:22;4.15;;;3.83;;
6979;SDS011;3530;52.832;10.680;2023-08-12T05:14:08;7.30;;;4.45;;
6979;SDS011;3530;52.832;10.680;2023-08-12T05:16:53;4.00;;;3.63;;
6979;SDS011;3530;52.832;10.680;2023-08-12T05:19:39;5.03;;;3.72;;
6979;SDS011;3530;52.832;10.680;2023-08-12T05:22:25;5.30;;;4.35;;
6979;SDS011;3530;52.832;10.680;2023-08-12T05:25:10;8.57;;;5.13;;
6979;SDS011;3530;52.832;10.680;2023-08-12T05:27:56;6.40;;;4.72;;
6979;SDS011;3530;52.832;10.680;2023-08-12T05:30:42;6.03;;;4.80;;
6979;SDS011;3530;52.832;10.680;2023-08-12T05:33:27;5.55;;;4.78;;
6979;SDS011;3530;52.832;10.680;2023-08-12T05:36:13;6.53;;;4.38;;
6979;SDS011;3530;52.832;10.680;2023-08-12T05:38:58;9.02;;;4.88;;
6979;SDS011;3530;52.832;10.680;2023-08-12T05:41:44;8.02;;;3.80;;
6979;SDS011;3530;52.832;10.680;2023-08-12T05:44:31;5.60;;;3.55;;
6979;SDS011;3530;52.832;10.680;2023-08-12T05:47:17;5.00;;;4.13;;
6979;SDS011;3530;52.832;10.680;2023-08-12T05:50:03;5.45;;;4.10;;
6979;SDS011;3530;52.832;10.680;2023-08-12T05:52:49;4.28;;;3.28;;
6979;SDS011;3530;52.832;10.680;2023-08-12T05:55:35;4.38;;;3.45;;
6979;SDS011;3530;52.832;10.680;2023-08-12T05:58:20;6.97;;;3.97;;
6979;SDS011;3530;52.832;10.680;2023-08-12T06:01:06;6.07;;;4.20;;
6979;SDS011;3530;52.832;10.680;2023-08-12T06:03:51;6.95;;;4.55;;
6979;SDS011;3530;52.832;10.680;2023-08-12T06:06:37;5.03;;;3.65;;
6979;SDS011;3530;52.832;10.680;2023-08-12T06:09:23;3.75;;;3.45;;
6979;SDS011;3530;52.832;10.680;2023-08-12T06:12:08;4.53;;;3.97;;
6979;SDS011;3530;52.832;10.680;2023-08-12T06:14:54;2.88;;;2.75;;
6979;SDS011;3530;52.832;10.680;2023-08-12T06:17:40;3.92;;;3.60;;
6979;SDS011;3530;52.832;10.680;2023-08-12T06:20:26;4.15;;;3.55;;
6979;SDS011;3530;52.832;10.680;2023-08-12T06:23:11;4.85;;;3.80;;
6979;SDS011;3530;52.832;10.680;2023-08-12T06:25:57;5.10;;;3.13;;
6979;SDS011;3530;52.832;10.680;2023-08-12T06:28:43;5.53;;;3.67;;
6979;SDS011;3530;52.832;10.680;2023-08-12T06:31:28;7.15;;;3.80;;
6979;SDS011;3530;52.832;10.680;2023-08-12T06:34:14;4.22;;;3.83;;
6979;SDS011;3530;52.832;10.680;2023-08-12T06:37:00;3.55;;;3.15;;
6979;SDS011;3530;52.832;10.680;2023-08-12T06:39:45;5.50;;;3.35;;
6979;SDS011;3530;52.832;10.680;2023-08-12T06:42:31;3.83;;;3.42;;
6979;SDS011;3530;52.832;10.680;2023-08-12T06:45:17;3.95;;;3.65;;
6979;SDS011;3530;52.832;10.680;2023-08-12T06:48:02;3.78;;;3.45;;
6979;SDS011;3530;52.832;10.680;2023-08-12T06:50:55;5.75;;;3.10;;
6979;SDS011;3530;52.832;10.680;2023-08-12T06:53:41;5.85;;;3.80;;
6979;SDS011;3530;52.832;10.680;2023-08-12T06:56:27;5.05;;;3.70;;
6979;SDS011;3530;52.832;10.680;2023-08-12T06:59:13;6.70;;;3.83;;
6979;SDS011;3530;52.832;10.680;2023-08-12T07:01:58;4.80;;;3.83;;
6979;SDS011;3530;52.832;10.680;2023-08-12T07:04:44;5.50;;;4.50;;
6979;SDS011;3530;52.832;10.680;2023-08-12T07:07:30;4.07;;;3.63;;
6979;SDS011;3530;52.832;10.680;2023-08-12T07:10:15;6.20;;;3.92;;
6979;SDS011;3530;52.832;10.680;2023-08-12T07:13:01;5.93;;;4.20;;
6979;SDS011;3530;52.832;10.680;2023-08-12T07:15:47;6.80;;;3.88;;
6979;SDS011;3530;52.832;10.680;2023-08-12T07:18:33;7.30;;;4.95;;
6979;SDS011;3530;52.832;10.680;2023-08-12T07:21:18;5.93;;;3.97;;
6979;SDS011;3530;52.832;10.680;2023-08-12T07:24:04;4.30;;;3.90;;
6979;SDS011;3530;52.832;10.680;2023-08-12T07:26:50;4.15;;;3.75;;
6979;SDS011;3530;52.832;10.680;2023-08-12T07:29:36;4.40;;;4.00;;
6979;SDS011;3530;52.832;10.680;2023-08-12T07:32:22;8.23;;;5.00;;
6979;SDS011;3530;52.832;10.680;2023-08-12T07:35:07;5.68;;;3.80;;
6979;SDS011;3530;52.832;10.680;2023-08-12T07:37:53;4.93;;;4.15;;
6979;SDS011;3530;52.832;10.680;2023-08-12T07:40:39;4.00;;;3.70;;
6979;SDS011;3530;52.832;10.680;2023-08-12T07:43:25;8.35;;;4.03;;
6979;SDS011;3530;52.832;10.680;2023-08-12T07:46:11;6.22;;;4.13;;
6979;SDS011;3530;52.832;10.680;2023-08-12T07:48:56;4.75;;;4.35;;
6979;SDS011;3530;52.832;10.680;2023-08-12T07:51:42;4.72;;;3.95;;
6979;SDS011;3530;52.832;10.680;2023-08-12T07:54:28;7.68;;;4.05;;
6979;SDS011;3530;52.832;10.680;2023-08-12T07:57:14;5.60;;;4.43;;
6979;SDS011;3530;52.832;10.680;2023-08-12T07:59:59;4.47;;;4.10;;
6979;SDS011;3530;52.832;10.680;2023-08-12T08:02:45;8.27;;;4.72;;
6979;SDS011;3530;52.832;10.680;2023-08-12T08:05:31;6.05;;;4.13;;
6979;SDS011;3530;52.832;10.680;2023-08-12T08:08:17;7.03;;;4.70;;
6979;SDS011;3530;52.832;10.680;2023-08-12T08:11:03;6.70;;;4.53;;
6979;SDS011;3530;52.832;10.680;2023-08-12T08:13:49;5.13;;;4.28;;
6979;SDS011;3530;52.832;10.680;2023-08-12T08:16:35;6.53;;;4.85;;
6979;SDS011;3530;52.832;10.680;2023-08-12T08:19:20;5.38;;;4.85;;
6979;SDS011;3530;52.832;10.680;2023-08-12T08:22:06;5.00;;;4.50;;
6979;SDS011;3530;52.832;10.680;2023-08-12T08:24:52;4.95;;;4.53;;
6979;SDS011;3530;52.832;10.680;2023-08-12T08:27:37;5.57;;;3.95;;
6979;SDS011;3530;52.832;10.680;2023-08-12T08:30:24;4.93;;;4.53;;
6979;SDS011;3530;52.832;10.680;2023-08-12T08:33:10;4.60;;;4.22;;
6979;SDS011;3530;52.832;10.680;2023-08-12T08:35:56;4.47;;;4.13;;
6979;SDS011;3530;52.832;10.680;2023-08-12T08:38:42;9.07;;;4.80;;
6979;SDS011;3530;52.832;10.680;2023-08-12T08:41:28;5.55;;;4.53;;
6979;SDS011;3530;52.832;10.680;2023-08-12T08:44:15;5.68;;;4.55;;
6979;SDS011;3530;52.832;10.680;2023-08-12T08:47:03;8.55;;;4.60;;
6979;SDS011;3530;52.832;10.680;2023-08-12T08:49:49;5.00;;;4.53;;
6979;SDS011;3530;52.832;10.680;2023-08-12T08:52:35;5.18;;;4.20;;
6979;SDS011;3530;52.832;10.680;2023-08-12T08:55:23;8.00;;;6.28;;
6979;SDS011;3530;52.832;10.680;2023-08-12T08:58:08;7.30;;;5.75;;
6979;SDS011;3530;52.832;10.680;2023-08-12T09:00:54;6.50;;;5.35;;
6979;SDS011;3530;52.832;10.680;2023-08-12T09:03:40;5.35;;;4.68;;
6979;SDS011;3530;52.832;10.680;2023-08-12T09:06:26;7.47;;;4.57;;
6979;SDS011;3530;52.832;10.680;2023-08-12T09:09:14;5.43;;;4.93;;
6979;SDS011;3530;52.832;10.680;2023-08-12T09:12:02;6.72;;;4.43;;
6979;SDS011;3530;52.832;10.680;2023-08-12T09:14:49;4.78;;;4.00;;
6979;SDS011;3530;52.832;10.680;2023-08-12T09:17:34;5.75;;;4.82;;
6979;SDS011;3530;52.832;10.680;2023-08-12T09:20:20;4.55;;;4.15;;
6979;SDS011;3530;52.832;10.680;2023-08-12T09:23:06;6.45;;;4.65;;
6979;SDS011;3530;52.832;10.680;2023-08-12T09:25:54;6.72;;;4.63;;
6979;SDS011;3530;52.832;10.680;2023-08-12T09:28:39;6.53;;;4.53;;
6979;SDS011;3530;52.832;10.680;2023-08-12T09:31:26;8.35;;;5.47;;
6979;SDS011;3530;52.832;10.680;2023-08-12T09:34:13;6.18;;;4.47;;
6979;SDS011;3530;52.832;10.680;2023-08-12T09:36:59;8.90;;;4.65;;
6979;SDS011;3530;52.832;10.680;2023-08-12T09:39:46;4.28;;;3.88;;
6979;SDS011;3530;52.832;10.680;2023-08-12T09:42:33;3.92;;;3.58;;
6979;SDS011;3530;52.832;10.680;2023-08-12T09:45:19;6.30;;;4.00;;
6979;SDS011;3530;52.832;10.680;2023-08-12T09:48:09;7.80;;;4.90;;
6979;SDS011;3530;52.832;10.680;2023-08-12T09:50:54;5.47;;;4.00;;
6979;SDS011;3530;52.832;10.680;2023-08-12T09:53:40;5.53;;;5.00;;
6979;SDS011;3530;52.832;10.680;2023-08-12T09:56:27;5.45;;;4.95;;
6979;SDS011;3530;52.832;10.680;2023-08-12T09:59:18;4.82;;;4.32;;
6979;SDS011;3530;52.832;10.680;2023-08-12T10:02:08;12.63;;;6.00;;
6979;SDS011;3530;52.832;10.680;2023-08-12T10:04:58;4.82;;;4.40;;
6979;SDS011;3530;52.832;10.680;2023-08-12T10:07:45;6.13;;;4.35;;
6979;SDS011;3530;52.832;10.680;2023-08-12T10:10:32;5.70;;;4.53;;
6979;SDS011;3530;52.832;10.680;2023-08-12T10:13:19;8.95;;;4.80;;
6979;SDS011;3530;52.832;10.680;2023-08-12T10:16:06;5.45;;;4.68;;
6979;SDS011;3530;52.832;10.680;2023-08-12T10:18:53;4.85;;;3.97;;
6979;SDS011;3530;52.832;10.680;2023-08-12T10:21:41;7.32;;;6.57;;
6979;SDS011;3530;52.832;10.680;2023-08-12T10:24:27;7.10;;;6.22;;
6979;SDS011;3530;52.832;10.680;2023-08-12T10:27:12;6.78;;;5.97;;
6979;SDS011;3530;52.832;10.680;2023-08-12T10:29:59;7.22;;;6.50;;
6979;SDS011;3530;52.832;10.680;2023-08-12T10:32:48;8.75;;;6.50;;
6979;SDS011;3530;52.832;10.680;2023-08-12T10:35:40;8.73;;;6.25;;
6979;SDS011;3530;52.832;10.680;2023-08-12T10:38:26;5.55;;;5.10;;
6979;SDS011;3530;52.832;10.680;2023-08-12T10:44:07;8.90;;;6.97;;
6979;SDS011;3530;52.832;10.680;2023-08-12T10:46:53;7.95;;;6.43;;
6979;SDS011;3530;52.832;10.680;2023-08-12T10:49:42;7.80;;;6.07;;
6979;SDS011;3530;52.832;10.680;2023-08-12T10:52:30;10.00;;;6.72;;
6979;SDS011;3530;52.832;10.680;2023-08-12T10:55:18;8.70;;;6.35;;
6979;SDS011;3530;52.832;10.680;2023-08-12T10:58:13;11.30;;;6.43;;
6979;SDS011;3530;52.832;10.680;2023-08-12T11:01:11;6.05;;;5.45;;
6979;SDS011;3530;52.832;10.680;2023-08-12T11:03:59;6.75;;;6.05;;
6979;SDS011;3530;52.832;10.680;2023-08-12T11:06:47;6.20;;;5.60;;
6979;SDS011;3530;52.832;10.680;2023-08-12T11:09:34;8.75;;;5.32;;
6979;SDS011;3530;52.832;10.680;2023-08-12T11:12:28;7.65;;;5.50;;
6979;SDS011;3530;52.832;10.680;2023-08-12T11:15:15;6.47;;;5.78;;
6979;SDS011;3530;52.832;10.680;2023-08-12T11:18:08;6.30;;;5.68;;
6979;SDS011;3530;52.832;10.680;2023-08-12T11:20:54;7.07;;;5.32;;
6979;SDS011;3530;52.832;10.680;2023-08-12T11:23:40;7.60;;;6.47;;
6979;SDS011;3530;52.832;10.680;2023-08-12T11:26:26;5.38;;;4.88;;
6979;SDS011;3530;52.832;10.680;2023-08-12T11:29:11;5.78;;;5.20;;
6979;SDS011;3530;52.832;10.680;2023-08-12T11:31:57;5.00;;;4.60;;
6979;SDS011;3530;52.832;10.680;2023-08-12T11:34:44;4.90;;;4.43;;
6979;SDS011;3530;52.832;10.680;2023-08-12T11:37:29;5.60;;;4.47;;
6979;SDS011;3530;52.832;10.680;2023-08-12T11:40:16;6.40;;;5.15;;
6979;SDS011;3530;52.832;10.680;2023-08-12T11:43:02;8.75;;;5.22;;
6979;SDS011;3530;52.832;10.680;2023-08-12T11:45:49;6.25;;;4.30;;
6979;SDS011;3530;52.832;10.680;2023-08-12T11:48:34;5.82;;;4.70;;
6979;SDS011;3530;52.832;10.680;2023-08-12T11:51:20;4.53;;;4.13;;
6979;SDS011;3530;52.832;10.680;2023-08-12T11:54:06;5.50;;;5.03;;
6979;SDS011;3530;52.832;10.680;2023-08-12T11:56:51;5.15;;;4.65;;
6979;SDS011;3530;52.832;10.680;2023-08-12T11:59:37;5.53;;;4.93;;
6979;SDS011;3530;52.832;10.680;2023-08-12T12:02:23;5.40;;;4.80;;
6979;SDS011;3530;52.832;10.680;2023-08-12T12:05:12;5.80;;;4.25;;
6979;SDS011;3530;52.832;10.680;2023-08-12T12:07:59;5.50;;;4.93;;
6979;SDS011;3530;52.832;10.680;2023-08-12T12:10:44;6.53;;;4.18;;
6979;SDS011;3530;52.832;10.680;2023-08-12T12:13:30;5.65;;;3.63;;
6979;SDS011;3530;52.832;10.680;2023-08-12T12:16:16;4.40;;;4.03;;
6979;SDS011;3530;52.832;10.680;2023-08-12T12:19:01;4.90;;;4.40;;
6979;SDS011;3530;52.832;10.680;2023-08-12T12:21:49;5.80;;;4.43;;
6979;SDS011;3530;52.832;10.680;2023-08-12T12:24:45;4.25;;;3.88;;
6979;SDS011;3530;52.832;10.680;2023-08-12T12:27:34;6.70;;;4.28;;
6979;SDS011;3530;52.832;10.680;2023-08-12T12:30:19;4.60;;;4.10;;
6979;SDS011;3530;52.832;10.680;2023-08-12T12:33:05;4.90;;;3.90;;
6979;SDS011;3530;52.832;10.680;2023-08-12T12:35:51;5.30;;;3.63;;
6979;SDS011;3530;52.832;10.680;2023-08-12T12:38:37;6.68;;;3.90;;
6979;SDS011;3530;52.832;10.680;2023-08-12T12:41:22;3.70;;;3.47;;
6979;SDS011;3530;52.832;10.680;2023-08-12T12:44:08;4.40;;;4.05;;
6979;SDS011;3530;52.832;10.680;2023-08-12T12:46:54;3.95;;;3.65;;
6979;SDS011;3530;52.832;10.680;2023-08-12T12:49:39;4.03;;;3.15;;
6979;SDS011;3530;52.832;10.680;2023-08-12T12:52:26;5.22;;;4.60;;
6979;SDS011;3530;52.832;10.680;2023-08-12T12:55:12;4.47;;;4.07;;
6979;SDS011;3530;52.832;10.680;2023-08-12T12:57:58;3.88;;;3.58;;
6979;SDS011;3530;52.832;10.680;2023-08-12T13:00:43;3.92;;;3.50;;
6979;SDS011;3530;52.832;10.680;2023-08-12T13:03:29;4.45;;;3.90;;
6979;SDS011;3530;52.832;10.680;2023-08-12T13:06:18;4.45;;;3.97;;
6979;SDS011;3530;52.832;10.680;2023-08-12T13:09:03;5.88;;;3.92;;
6979;SDS011;3530;52.832;10.680;2023-08-12T13:11:49;5.07;;;3.65;;
6979;SDS011;3530;52.832;10.680;2023-08-12T13:14:35;5.88;;;3.55;;
6979;SDS011;3530;52.832;10.680;2023-08-12T13:17:21;3.50;;;3.30;;
6979;SDS011;3530;52.832;10.680;2023-08-12T13:20:07;4.00;;;3.70;;
6979;SDS011;3530;52.832;10.680;2023-08-12T13:22:53;4.07;;;3.65;;
6979;SDS011;3530;52.832;10.680;2023-08-12T13:25:39;3.75;;;3.22;;
6979;SDS011;3530;52.832;10.680;2023-08-12T13:28:24;6.38;;;3.90;;
6979;SDS011;3530;52.832;10.680;2023-08-12T13:31:10;3.50;;;3.28;;
6979;SDS011;3530;52.832;10.680;2023-08-12T13:33:56;3.55;;;3.35;;
6979;SDS011;3530;52.832;10.680;2023-08-12T13:36:41;5.05;;;3.45;;
6979;SDS011;3530;52.832;10.680;2023-08-12T13:39:27;4.65;;;3.38;;
6979;SDS011;3530;52.832;10.680;2023-08-12T13:42:13;3.63;;;3.33;;
6979;SDS011;3530;52.832;10.680;2023-08-12T13:44:58;3.03;;;2.83;;
6979;SDS011;3530;52.832;10.680;2023-08-12T13:47:44;3.42;;;3.15;;
6979;SDS011;3530;52.832;10.680;2023-08-12T13:50:30;3.08;;;2.85;;
6979;SDS011;3530;52.832;10.680;2023-08-12T13:53:18;4.00;;;3.60;;
6979;SDS011;3530;52.832;10.680;2023-08-12T13:56:03;4.25;;;3.30;;
6979;SDS011;3530;52.832;10.680;2023-08-12T13:58:49;4.13;;;3.35;;
6979;SDS011;3530;52.832;10.680;2023-08-12T14:01:35;4.28;;;3.97;;
6979;SDS011;3530;52.832;10.680;2023-08-12T14:04:20;2.85;;;2.67;;
6979;SDS011;3530;52.832;10.680;2023-08-12T14:07:06;2.90;;;2.70;;
6979;SDS011;3530;52.832;10.680;2023-08-12T14:09:52;3.72;;;3.42;;
6979;SDS011;3530;52.832;10.680;2023-08-12T14:12:37;2.95;;;2.75;;
6979;SDS011;3530;52.832;10.680;2023-08-12T14:15:23;3.17;;;2.97;;
6979;SDS011;3530;52.832;10.680;2023-08-12T14:18:09;3.42;;;2.88;;
6979;SDS011;3530;52.832;10.680;2023-08-12T14:20:54;3.17;;;2.97;;
6979;SDS011;3530;52.832;10.680;2023-08-12T14:23:40;2.80;;;2.70;;
6979;SDS011;3530;52.832;10.680;2023-08-12T14:26:26;3.60;;;2.72;;
6979;SDS011;3530;52.832;10.680;2023-08-12T14:29:11;3.33;;;2.65;;
6979;SDS011;3530;52.832;10.680;2023-08-12T14:31:57;3.60;;;3.25;;
6979;SDS011;3530;52.832;10.680;2023-08-12T14:34:43;2.70;;;2.50;;
6979;SDS011;3530;52.832;10.680;2023-08-12T14:37:30;3.45;;;2.80;;
6979;SDS011;3530;52.832;10.680;2023-08-12T14:40:16;3.30;;;3.05;;
6979;SDS011;3530;52.832;10.680;2023-08-12T14:43:02;4.15;;;2.80;;
6979;SDS011;3530;52.832;10.680;2023-08-12T14:45:47;2.50;;;2.30;;
6979;SDS011;3530;52.832;10.680;2023-08-12T14:48:33;4.85;;;2.95;;
6979;SDS011;3530;52.832;10.680;2023-08-12T14:51:18;3.10;;;2.75;;
6979;SDS011;3530;52.832;10.680;2023-08-12T14:54:04;2.67;;;2.50;;
6979;SDS011;3530;52.832;10.680;2023-08-12T14:56:50;2.80;;;2.60;;
6979;SDS011;3530;52.832;10.680;2023-08-12T14:59:36;3.00;;;2.80;;
6979;SDS011;3530;52.832;10.680;2023-08-12T15:02:22;2.80;;;2.60;;
6979;SDS011;3530;52.832;10.680;2023-08-12T15:05:10;2.85;;;2.55;;
6979;SDS011;3530;52.832;10.680;2023-08-12T15:07:57;3.08;;;2.70;;
6979;SDS011;3530;52.832;10.680;2023-08-12T15:10:43;2.78;;;2.58;;
6979;SDS011;3530;52.832;10.680;2023-08-12T15:13:28;3.00;;;2.80;;
6979;SDS011;3530;52.832;10.680;2023-08-12T15:16:14;2.30;;;2.20;;
6979;SDS011;3530;52.832;10.680;2023-08-12T15:19:00;2.58;;;2.38;;
6979;SDS011;3530;52.832;10.680;2023-08-12T15:21:47;2.15;;;2.05;;
6979;SDS011;3530;52.832;10.680;2023-08-12T15:24:34;4.18;;;2.60;;
6979;SDS011;3530;52.832;10.680;2023-08-12T15:27:19;2.60;;;2.50;;
6979;SDS011;3530;52.832;10.680;2023-08-12T15:30:05;2.60;;;2.40;;
6979;SDS011;3530;52.832;10.680;2023-08-12T15:32:51;2.55;;;2.35;;
6979;SDS011;3530;52.832;10.680;2023-08-12T15:35:37;2.30;;;2.20;;
6979;SDS011;3530;52.832;10.680;2023-08-12T15:38:23;2.75;;;2.55;;
6979;SDS011;3530;52.832;10.680;2023-08-12T15:41:12;2.20;;;2.10;;
6979;SDS011;3530;52.832;10.680;2023-08-12T15:43:59;2.78;;;2.05;;
6979;SDS011;3530;52.832;10.680;2023-08-12T15:46:45;2.20;;;2.10;;
6979;SDS011;3530;52.832;10.680;2023-08-12T15:49:31;2.28;;;2.17;;
6979;SDS011;3530;52.832;10.680;2023-08-12T15:52:17;2.45;;;2.33;;
6979;SDS011;3530;52.832;10.680;2023-08-12T15:55:03;1.95;;;1.85;;
6979;SDS011;3530;52.832;10.680;2023-08-12T15:57:49;2.00;;;1.67;;
6979;SDS011;3530;52.832;10.680;2023-08-12T16:00:35;1.67;;;1.58;;
6979;SDS011;3530;52.832;10.680;2023-08-12T16:03:21;2.00;;;1.90;;
6979;SDS011;3530;52.832;10.680;2023-08-12T16:06:06;1.92;;;1.83;;
6979;SDS011;3530;52.832;10.680;2023-08-12T16:08:52;2.00;;;1.90;;
6979;SDS011;3530;52.832;10.680;2023-08-12T16:11:38;2.00;;;1.90;;
6979;SDS011;3530;52.832;10.680;2023-08-12T16:14:24;2.17;;;1.90;;
6979;SDS011;3530;52.832;10.680;2023-08-12T16:17:10;2.72;;;1.98;;
6979;SDS011;3530;52.832;10.680;2023-08-12T16:19:55;1.77;;;1.77;;
6979;SDS011;3530;52.832;10.680;2023-08-12T16:22:41;1.88;;;1.88;;
6979;SDS011;3530;52.832;10.680;2023-08-12T16:25:27;1.52;;;1.52;;
6979;SDS011;3530;52.832;10.680;2023-08-12T16:28:12;1.88;;;1.77;;
6979;SDS011;3530;52.832;10.680;2023-08-12T16:30:58;1.50;;;1.50;;
6979;SDS011;3530;52.832;10.680;2023-08-12T16:33:44;1.70;;;1.70;;
6979;SDS011;3530;52.832;10.680;2023-08-12T16:36:29;3.17;;;1.88;;
6979;SDS011;3530;52.832;10.680;2023-08-12T16:39:15;1.85;;;1.70;;
6979;SDS011;3530;52.832;10.680;2023-08-12T16:42:01;1.92;;;1.83;;
6979;SDS011;3530;52.832;10.680;2023-08-12T16:44:46;1.63;;;1.63;;
6979;SDS011;3530;52.832;10.680;2023-08-12T16:47:32;1.70;;;1.70;;
6979;SDS011;3530;52.832;10.680;2023-08-12T16:50:18;1.75;;;1.65;;
6979;SDS011;3530;52.832;10.680;2023-08-12T16:53:04;2.20;;;2.10;;
6979;SDS011;3530;52.832;10.680;2023-08-12T16:55:49;1.60;;;1.60;;
6979;SDS011;3530;52.832;10.680;2023-08-12T16:58:35;1.90;;;1.90;;